createdAt,value
2023-04-09T00:01:19.505Z,36.80
2023-04-09T00:03:53.917Z,33.50
2023-04-09T00:06:27.993Z,35.50
2023-04-09T00:09:02.324Z,36.50
2023-04-09T00:11:36.705Z,38.30
2023-04-09T00:14:11.342Z,35.80
2023-04-09T00:16:45.815Z,35.30
2023-04-09T00:19:20.068Z,37.10
2023-04-09T00:21:54.191Z,34.80
2023-04-09T00:24:28.558Z,37.20
2023-04-09T00:27:02.577Z,36.40
2023-04-09T00:29:36.828Z,37.20
2023-04-09T00:32:11.468Z,37.20
2023-04-09T00:34:45.960Z,35.50
2023-04-09T00:37:20.077Z,34.30
2023-04-09T00:39:54.198Z,38.50
2023-04-09T00:42:28.311Z,38.50
2023-04-09T00:45:02.318Z,37.60
2023-04-09T00:47:37.624Z,42.20
2023-04-09T00:50:13.336Z,36.30
2023-04-09T00:52:47.583Z,36.10
2023-04-09T00:55:24.845Z,35.00
2023-04-09T00:57:59.198Z,40.60
2023-04-09T01:00:33.280Z,36.60
2023-04-09T01:03:09.868Z,40.20
2023-04-09T01:05:55.906Z,39.50
2023-04-09T01:08:45.927Z,41.20
2023-04-09T01:11:37.242Z,38.40
2023-04-09T01:14:22.918Z,40.00
2023-04-09T01:17:06.264Z,41.30
2023-04-09T01:19:56.025Z,42.90
2023-04-09T01:22:58.938Z,44.00
2023-04-09T01:25:54.780Z,43.10
2023-04-09T01:28:35.776Z,39.10
2023-04-09T01:31:15.185Z,40.50
2023-04-09T01:33:49.709Z,42.40
2023-04-09T01:36:25.913Z,38.60
2023-04-09T01:39:03.775Z,38.10
2023-04-09T01:41:39.402Z,42.80
2023-04-09T01:44:16.158Z,42.90
2023-04-09T01:46:52.872Z,45.10
2023-04-09T01:49:27.347Z,41.90
2023-04-09T01:52:02.752Z,43.90
2023-04-09T01:54:36.802Z,46.10
2023-04-09T01:57:10.828Z,42.50
2023-04-09T01:59:45.244Z,46.30
2023-04-09T02:02:30.009Z,44.10
2023-04-09T02:05:10.807Z,42.10
2023-04-09T02:07:50.635Z,46.00
2023-04-09T02:10:28.326Z,44.20
2023-04-09T02:13:06.340Z,44.20
2023-04-09T02:15:42.875Z,48.80
2023-04-09T02:18:31.558Z,42.90
2023-04-09T02:21:08.348Z,46.20
2023-04-09T02:23:42.447Z,48.40
2023-04-09T02:26:16.490Z,45.60
2023-04-09T02:28:50.974Z,44.50
2023-04-09T02:31:25.411Z,46.10
2023-04-09T02:33:59.548Z,48.00
2023-04-09T02:36:33.682Z,48.30
2023-04-09T02:39:07.718Z,49.20
2023-04-09T02:41:41.813Z,47.60
2023-04-09T02:44:15.960Z,50.50
2023-04-09T02:46:52.083Z,42.60
2023-04-09T02:49:26.354Z,51.40
2023-04-09T02:52:00.471Z,44.80
2023-04-09T02:54:34.621Z,47.70
2023-04-09T02:57:08.696Z,44.50
2023-04-09T02:59:42.770Z,48.90
2023-04-09T03:02:16.949Z,44.60
2023-04-09T03:04:51.092Z,47.80
2023-04-09T03:07:25.229Z,55.30
2023-04-09T03:09:59.294Z,46.10
2023-04-09T03:12:33.355Z,47.30
2023-04-09T03:15:09.898Z,45.10
2023-04-09T03:17:44.162Z,43.30
2023-04-09T03:20:18.325Z,48.40
2023-04-09T03:22:52.321Z,48.00
2023-04-09T03:25:33.077Z,45.00
2023-04-09T03:28:09.095Z,50.30
2023-04-09T03:30:47.824Z,46.00
2023-04-09T03:33:22.356Z,40.40
2023-04-09T03:36:01.817Z,46.80
2023-04-09T03:38:43.074Z,46.80
2023-04-09T03:41:27.448Z,45.20
2023-04-09T03:44:02.003Z,47.10
2023-04-09T03:46:40.191Z,49.70
2023-04-09T03:49:14.809Z,49.60
2023-04-09T03:51:50.353Z,47.80
2023-04-09T03:54:24.428Z,46.30
2023-04-09T03:56:59.435Z,48.30
2023-04-09T03:59:33.452Z,48.70
2023-04-09T04:02:07.628Z,47.20
2023-04-09T04:04:42.838Z,47.20
2023-04-09T04:07:17.732Z,48.30
2023-04-09T04:09:56.377Z,48.20
2023-04-09T04:12:32.867Z,49.50
2023-04-09T04:15:30.083Z,53.30
2023-04-09T04:18:04.160Z,45.40
2023-04-09T04:21:04.523Z,47.30
2023-04-09T04:23:40.165Z,48.80
2023-04-09T04:26:30.418Z,43.70
2023-04-09T04:29:06.997Z,47.20
2023-04-09T04:31:59.657Z,47.20
2023-04-09T04:34:37.083Z,49.60
2023-04-09T04:37:20.163Z,46.40
2023-04-09T04:39:54.390Z,50.30
2023-04-09T04:42:28.907Z,48.00
2023-04-09T04:45:03.107Z,47.70
2023-04-09T04:47:46.477Z,48.30
2023-04-09T04:50:21.241Z,50.40
2023-04-09T04:53:08.163Z,47.00
2023-04-09T04:55:48.969Z,48.70
2023-04-09T04:58:25.932Z,48.70
2023-04-09T05:01:02.895Z,51.60
2023-04-09T05:03:37.372Z,48.00
2023-04-09T05:06:30.117Z,46.00
2023-04-09T05:09:04.884Z,51.00
2023-04-09T05:11:45.766Z,49.70
2023-04-09T05:14:24.182Z,43.20
2023-04-09T05:16:58.714Z,48.40
2023-04-09T05:19:36.391Z,50.70
2023-04-09T05:22:10.733Z,43.50
2023-04-09T05:24:44.788Z,49.10
2023-04-09T05:27:20.843Z,47.50
2023-04-09T05:29:55.753Z,47.70
2023-04-09T05:32:31.478Z,45.50
2023-04-09T05:35:06.338Z,46.30
2023-04-09T05:37:41.295Z,47.50
2023-04-09T05:40:17.710Z,49.70
2023-04-09T05:42:51.927Z,48.60
2023-04-09T05:45:42.403Z,50.40
2023-04-09T05:48:17.177Z,47.60
2023-04-09T05:50:56.052Z,49.40
2023-04-09T05:53:32.920Z,46.90
2023-04-09T05:56:14.364Z,43.60
2023-04-09T05:58:53.980Z,50.50
2023-04-09T06:01:28.341Z,50.50
2023-04-09T06:04:03.120Z,52.40
2023-04-09T06:06:40.358Z,45.90
2023-04-09T06:09:14.558Z,49.30
2023-04-09T06:11:48.640Z,48.00
2023-04-09T06:14:22.701Z,48.10
2023-04-09T06:16:57.121Z,45.70
2023-04-09T06:19:31.565Z,49.60
2023-04-09T06:22:13.393Z,49.80
2023-04-09T06:24:47.439Z,47.70
2023-04-09T06:27:22.239Z,52.30
2023-04-09T06:29:56.453Z,54.30
2023-04-09T06:32:33.639Z,47.40
2023-04-09T06:35:13.069Z,49.00
2023-04-09T06:37:47.421Z,52.60
2023-04-09T06:40:23.599Z,48.50
2023-04-09T06:42:57.852Z,47.10
2023-04-09T06:45:39.557Z,50.50
2023-04-09T06:48:14.930Z,55.10
2023-04-09T06:50:50.046Z,54.40
2023-04-09T06:53:24.157Z,52.60
2023-04-09T06:55:58.416Z,52.90
2023-04-09T06:58:32.664Z,51.50
2023-04-09T07:01:07.387Z,58.50
2023-04-09T07:03:41.902Z,55.40
2023-04-09T07:06:16.106Z,56.30
2023-04-09T07:08:50.231Z,57.10
2023-04-09T07:11:24.222Z,53.30
2023-04-09T07:13:58.646Z,48.00
2023-04-09T07:16:32.799Z,49.70
2023-04-09T07:19:07.622Z,54.20
2023-04-09T07:21:41.847Z,48.40
2023-04-09T07:24:15.953Z,53.90
2023-04-09T07:26:52.119Z,48.40
2023-04-09T07:29:27.388Z,47.40
2023-04-09T07:32:02.871Z,47.30
2023-04-09T07:34:37.717Z,50.40
2023-04-09T07:37:12.299Z,48.70
2023-04-09T07:39:46.746Z,46.40
2023-04-09T07:42:20.828Z,49.00
2023-04-09T07:44:55.168Z,46.20
2023-04-09T07:47:29.657Z,45.90
2023-04-09T07:50:04.098Z,46.90
2023-04-09T07:52:38.071Z,47.40
2023-04-09T07:55:13.052Z,47.20
2023-04-09T07:57:48.329Z,46.80
2023-04-09T08:00:23.546Z,47.10
2023-04-09T08:02:58.128Z,44.10
2023-04-09T08:05:32.440Z,44.50
2023-04-09T08:08:07.040Z,46.90
2023-04-09T08:10:41.539Z,42.10
2023-04-09T08:13:16.091Z,46.90
2023-04-09T08:15:50.261Z,44.60
2023-04-09T08:18:24.517Z,43.00
2023-04-09T08:20:58.795Z,48.30
2023-04-09T08:23:32.937Z,47.70
2023-04-09T08:26:07.211Z,43.80
2023-04-09T08:28:42.095Z,41.70
2023-04-09T08:31:16.310Z,35.50
2023-04-09T08:33:50.484Z,46.60
2023-04-09T08:36:24.887Z,44.20
2023-04-09T08:39:00.633Z,47.40
2023-04-09T08:41:35.833Z,45.30
2023-04-09T08:44:10.861Z,45.70
2023-04-09T08:46:45.336Z,38.30
2023-04-09T08:49:19.594Z,43.20
2023-04-09T08:51:53.940Z,41.20
2023-04-09T08:54:28.027Z,44.90
2023-04-09T08:57:05.627Z,39.10
2023-04-09T08:59:39.717Z,41.80
2023-04-09T09:02:14.563Z,42.70
2023-04-09T09:04:55.357Z,42.60
2023-04-09T09:07:31.176Z,45.20
2023-04-09T09:10:07.227Z,42.10
2023-04-09T09:12:43.461Z,41.60
2023-04-09T09:15:32.099Z,42.20
2023-04-09T09:18:07.341Z,45.20
2023-04-09T09:20:41.689Z,44.00
2023-04-09T09:23:16.279Z,37.70
2023-04-09T09:25:50.290Z,37.00
2023-04-09T09:28:24.870Z,38.30
2023-04-09T09:31:11.421Z,45.90
2023-04-09T09:33:46.304Z,38.80
2023-04-09T09:36:33.531Z,44.20
2023-04-09T09:39:10.503Z,40.70
2023-04-09T09:41:45.931Z,44.00
2023-04-09T09:44:36.448Z,42.60
2023-04-09T09:47:13.434Z,45.80
2023-04-09T09:49:49.118Z,47.90
2023-04-09T09:52:28.174Z,48.30
2023-04-09T09:55:07.940Z,35.90
2023-04-09T09:57:47.300Z,46.60
2023-04-09T10:00:25.680Z,42.30
2023-04-09T10:03:13.673Z,43.60
2023-04-09T10:05:50.123Z,47.10
2023-04-09T10:08:24.903Z,39.20
2023-04-09T10:10:59.232Z,42.10
2023-04-09T10:13:40.813Z,43.70
2023-04-09T10:16:15.608Z,45.30
2023-04-09T10:18:50.221Z,44.30
2023-04-09T10:21:38.554Z,44.10
2023-04-09T10:24:13.788Z,46.40
2023-04-09T10:26:48.939Z,40.90
2023-04-09T10:29:32.265Z,42.20
2023-04-09T10:32:11.775Z,43.10
2023-04-09T10:34:46.589Z,45.40
2023-04-09T10:37:27.408Z,43.30
2023-04-09T10:40:01.696Z,43.60
2023-04-09T10:42:42.218Z,41.50
2023-04-09T10:47:56.585Z,38.40
2023-04-09T10:50:36.618Z,35.90
2023-04-09T10:53:22.290Z,41.30
2023-04-09T10:55:57.499Z,38.30
2023-04-09T10:58:31.971Z,39.80
2023-04-09T11:01:06.268Z,40.80
2023-04-09T11:03:48.334Z,38.90
2023-04-09T11:06:26.161Z,37.40
2023-04-09T11:09:06.186Z,38.40
2023-04-09T11:11:40.793Z,35.40
2023-04-09T11:14:23.873Z,36.20
2023-04-09T11:16:58.751Z,38.30
2023-04-09T11:19:34.736Z,39.80
2023-04-09T11:22:09.862Z,37.20
2023-04-09T11:24:47.866Z,38.10
2023-04-09T11:27:22.049Z,40.00
2023-04-09T11:29:59.802Z,37.40
2023-04-09T11:32:35.370Z,35.50
2023-04-09T11:35:14.525Z,41.90
2023-04-09T11:37:50.440Z,36.00
2023-04-09T11:40:26.531Z,38.20
2023-04-09T11:43:01.128Z,37.80
2023-04-09T11:45:35.987Z,35.60
2023-04-09T11:48:10.751Z,38.70
2023-04-09T11:50:45.927Z,43.20
2023-04-09T11:53:24.936Z,37.70
2023-04-09T11:55:58.977Z,37.40
2023-04-09T11:58:33.153Z,41.30
2023-04-09T12:01:07.598Z,39.50
2023-04-09T12:03:41.852Z,43.50
2023-04-09T12:06:16.314Z,39.00
2023-04-09T12:08:54.313Z,41.50
2023-04-09T12:11:33.533Z,40.30
2023-04-09T12:14:08.084Z,40.30
2023-04-09T12:16:44.102Z,39.20
2023-04-09T12:19:20.061Z,42.60
2023-04-09T12:21:56.471Z,40.90
2023-04-09T12:24:31.061Z,42.30
2023-04-09T12:27:05.496Z,42.50
2023-04-09T12:29:39.640Z,39.00
2023-04-09T12:32:13.790Z,41.70
2023-04-09T12:34:50.012Z,43.40
2023-04-09T12:37:24.140Z,40.40
2023-04-09T12:39:58.249Z,46.30
2023-04-09T12:42:32.492Z,39.10
2023-04-09T12:45:08.052Z,41.60
2023-04-09T12:47:42.489Z,38.90
2023-04-09T12:50:18.968Z,42.10
2023-04-09T12:52:53.124Z,43.30
2023-04-09T12:55:28.079Z,45.60
2023-04-09T12:58:02.855Z,41.60
2023-04-09T13:00:37.019Z,45.60
2023-04-09T13:03:11.989Z,45.00
2023-04-09T13:05:46.341Z,49.00
2023-04-09T13:08:20.783Z,45.10
2023-04-09T13:10:55.030Z,46.30
2023-04-09T13:13:29.254Z,45.40
2023-04-09T13:16:03.465Z,49.70
2023-04-09T13:18:37.747Z,47.40
2023-04-09T13:21:15.050Z,43.10
2023-04-09T13:23:49.125Z,46.10
2023-04-09T13:26:23.458Z,47.30
2023-04-09T13:28:57.525Z,42.60
2023-04-09T13:31:31.775Z,43.40
2023-04-09T13:34:06.587Z,44.40
2023-04-09T13:36:40.737Z,42.80
2023-04-09T13:39:14.851Z,40.50
2023-04-09T13:41:49.093Z,42.00
2023-04-09T13:44:23.214Z,41.70
2023-04-09T13:46:57.757Z,43.00
2023-04-09T13:49:32.262Z,39.90
2023-04-09T13:52:06.504Z,38.10
2023-04-09T13:54:41.332Z,37.50
2023-04-09T13:57:16.915Z,44.20
2023-04-09T13:59:51.129Z,41.60
2023-04-09T14:02:25.668Z,41.90
2023-04-09T14:04:59.968Z,47.40
2023-04-09T14:07:34.186Z,45.40
2023-04-09T14:10:10.500Z,40.80
2023-04-09T14:12:44.677Z,40.20
2023-04-09T14:15:19.084Z,40.50
2023-04-09T14:17:53.274Z,40.80
2023-04-09T14:20:27.491Z,41.70
2023-04-09T14:23:02.525Z,47.30
2023-04-09T14:25:37.556Z,37.00
2023-04-09T14:28:11.732Z,43.80
2023-04-09T14:30:46.681Z,47.70
2023-04-09T14:33:20.752Z,39.30
2023-04-09T14:35:54.914Z,40.30
2023-04-09T14:38:29.065Z,43.70
2023-04-09T14:41:03.240Z,42.60
2023-04-09T14:43:37.598Z,41.80
2023-04-09T14:46:13.666Z,45.30
2023-04-09T14:48:47.846Z,46.10
2023-04-09T14:51:22.078Z,44.70
2023-04-09T14:53:56.131Z,46.10
2023-04-09T14:56:30.635Z,41.40
2023-04-09T14:59:05.309Z,37.30
2023-04-09T15:01:39.544Z,41.60
2023-04-09T15:04:15.160Z,40.90
2023-04-09T15:06:49.253Z,43.00
2023-04-09T15:09:23.355Z,43.20
2023-04-09T15:12:03.543Z,45.30
2023-04-09T15:14:38.477Z,41.10
2023-04-09T15:17:12.872Z,43.60
2023-04-09T15:19:46.938Z,45.80
2023-04-09T15:22:21.100Z,42.90
2023-04-09T15:24:56.488Z,43.90
2023-04-09T15:27:30.813Z,43.70
2023-04-09T15:30:05.479Z,41.90
2023-04-09T15:32:39.770Z,38.20
2023-04-09T15:35:19.121Z,45.10
2023-04-09T15:37:53.419Z,44.40
2023-04-09T15:40:29.178Z,43.60
2023-04-09T15:43:03.623Z,46.60
2023-04-09T15:45:38.207Z,40.60
2023-04-09T15:48:14.283Z,42.90
2023-04-09T15:50:48.606Z,44.10
2023-04-09T15:53:26.694Z,44.70
2023-04-09T15:56:01.097Z,47.20
2023-04-09T15:58:36.189Z,43.60
2023-04-09T16:01:13.367Z,47.10
2023-04-09T16:03:52.301Z,45.70
2023-04-09T16:06:27.497Z,45.00
2023-04-09T16:09:02.113Z,46.40
2023-04-09T16:11:37.678Z,43.20
2023-04-09T16:14:12.227Z,40.80
2023-04-09T16:16:49.988Z,46.40
2023-04-09T16:19:25.096Z,39.30
2023-04-09T16:21:59.245Z,46.20
2023-04-09T16:24:33.492Z,47.20
2023-04-09T16:27:08.331Z,45.60
2023-04-09T16:29:42.898Z,44.00
2023-04-09T16:32:17.445Z,47.40
2023-04-09T16:34:52.057Z,47.40
2023-04-09T16:37:26.245Z,44.30
2023-04-09T16:40:03.140Z,46.90
2023-04-09T16:42:38.020Z,44.60
2023-04-09T16:45:14.382Z,46.90
2023-04-09T16:47:51.407Z,47.60
2023-04-09T16:50:27.622Z,45.50
2023-04-09T16:53:04.560Z,45.40
2023-04-09T16:55:39.846Z,47.10
2023-04-09T16:58:14.385Z,47.50
2023-04-09T17:00:50.737Z,45.60
2023-04-09T17:03:26.824Z,43.90
2023-04-09T17:06:01.902Z,41.50
2023-04-09T17:08:37.054Z,51.60
2023-04-09T17:14:53.746Z,46.10
2023-04-09T17:17:28.419Z,51.00
2023-04-09T17:20:03.462Z,53.70
2023-04-09T17:22:39.423Z,45.50
2023-04-09T17:25:14.495Z,54.10
2023-04-09T17:27:49.777Z,52.60
2023-04-09T17:30:24.840Z,51.20
2023-04-09T17:32:59.393Z,51.70
2023-04-09T17:35:34.234Z,52.50
2023-04-09T17:38:08.893Z,53.20
2023-04-09T17:40:43.749Z,49.80
2023-04-09T17:43:18.447Z,51.50
2023-04-09T17:45:52.820Z,53.10
2023-04-09T17:48:30.124Z,57.60
2023-04-09T17:51:06.965Z,51.80
2023-04-09T17:53:41.568Z,51.80
2023-04-09T17:56:22.840Z,50.00
2023-04-09T17:58:57.205Z,50.00
2023-04-09T18:01:31.902Z,49.50
2023-04-09T18:04:06.392Z,46.10
2023-04-09T18:06:40.771Z,50.10
2023-04-09T18:09:15.063Z,48.60
2023-04-09T18:11:53.629Z,46.30
2023-04-09T18:14:28.115Z,46.40
2023-04-09T18:17:03.514Z,52.10
2023-04-09T18:19:37.651Z,47.50
2023-04-09T18:22:11.998Z,49.40
2023-04-09T18:24:46.635Z,46.80
2023-04-09T18:27:21.782Z,48.70
2023-04-09T18:29:56.589Z,47.90
2023-04-09T18:32:31.206Z,51.20
2023-04-09T18:35:05.672Z,48.80
2023-04-09T18:37:39.789Z,47.20
2023-04-09T18:40:18.606Z,49.10
2023-04-09T18:42:55.919Z,48.10
2023-04-09T18:45:30.768Z,47.80
2023-04-09T18:48:08.312Z,47.20
2023-04-09T18:50:42.764Z,45.50
2023-04-09T18:53:17.042Z,49.00
2023-04-09T18:55:51.213Z,46.20
2023-04-09T18:58:25.302Z,45.90
2023-04-09T19:01:00.604Z,44.70
2023-04-09T19:03:35.289Z,52.60
2023-04-09T19:06:18.221Z,47.90
2023-04-09T19:08:58.134Z,50.70
2023-04-09T19:11:33.839Z,49.70
2023-04-09T19:14:10.557Z,47.20
2023-04-09T19:16:45.640Z,49.00
2023-04-09T19:19:20.108Z,46.60
2023-04-09T19:21:54.614Z,44.30
2023-04-09T19:24:29.308Z,46.60
2023-04-09T19:27:09.856Z,47.80
2023-04-09T19:29:45.596Z,44.80
2023-04-09T19:32:20.481Z,49.80
2023-04-09T19:34:55.281Z,50.60
2023-04-09T19:37:30.560Z,48.00
2023-04-09T19:40:06.073Z,41.50
2023-04-09T19:42:41.436Z,49.00
2023-04-09T19:45:17.726Z,48.20
2023-04-09T19:47:53.843Z,48.50
2023-04-09T19:50:29.703Z,55.60
2023-04-09T19:53:04.562Z,54.20
2023-04-09T19:55:40.878Z,56.10
2023-04-09T19:58:15.461Z,60.50
2023-04-09T20:00:51.494Z,57.20
2023-04-09T20:03:26.061Z,64.40
2023-04-09T20:06:01.060Z,53.50
2023-04-09T20:08:35.366Z,62.40
2023-04-09T20:11:10.255Z,63.00
2023-04-09T20:13:44.571Z,60.10
2023-04-09T20:16:20.742Z,53.50
2023-04-09T20:18:55.352Z,52.30
2023-04-09T20:21:29.978Z,53.70
2023-04-09T20:24:04.945Z,50.10
2023-04-09T20:26:39.275Z,51.30
2023-04-09T20:29:13.860Z,49.60
2023-04-09T20:31:48.211Z,56.10
2023-04-09T20:34:26.701Z,47.60
2023-04-09T20:37:01.806Z,51.70
2023-04-09T20:39:36.406Z,50.90
2023-04-09T20:42:10.519Z,52.60
2023-04-09T20:44:44.924Z,52.30
2023-04-09T20:47:20.938Z,53.30
2023-04-09T20:49:59.667Z,52.00
2023-04-09T20:52:33.914Z,54.00
2023-04-09T20:55:10.709Z,56.70
2023-04-09T20:57:44.937Z,48.70
2023-04-09T21:00:19.548Z,50.40
2023-04-09T21:02:54.269Z,58.90
2023-04-09T21:05:30.568Z,59.70
2023-04-09T21:08:04.929Z,51.60
2023-04-09T21:10:39.677Z,52.00
2023-04-09T21:13:13.876Z,54.90
2023-04-09T21:15:48.161Z,55.70
2023-04-09T21:18:22.568Z,57.30
2023-04-09T21:20:56.788Z,55.80
2023-04-09T21:23:31.113Z,56.20
2023-04-09T21:26:06.216Z,54.20
2023-04-09T21:28:40.465Z,53.30
2023-04-09T21:31:16.283Z,52.70
2023-04-09T21:33:51.218Z,55.30
2023-04-09T21:36:27.227Z,56.20
2023-04-09T21:39:01.578Z,49.40
2023-04-09T21:41:36.059Z,52.60
2023-04-09T21:44:10.803Z,52.30
2023-04-09T21:46:46.163Z,58.30
2023-04-09T21:49:20.422Z,56.50
2023-04-09T21:51:55.865Z,52.00
2023-04-09T21:54:32.763Z,49.00
2023-04-09T21:57:07.004Z,50.90
2023-04-09T21:59:41.604Z,48.90
2023-04-09T22:02:16.149Z,53.40
2023-04-09T22:04:51.262Z,51.00
2023-04-09T22:07:25.996Z,51.40
2023-04-09T22:10:02.235Z,50.10
2023-04-09T22:12:37.341Z,55.90
2023-04-09T22:15:13.527Z,47.50
2023-04-09T22:17:47.850Z,55.10
2023-04-09T22:20:24.473Z,73.30
2023-04-09T22:22:58.872Z,48.80
2023-04-09T22:25:35.285Z,48.30
2023-04-09T22:28:12.339Z,56.50
2023-04-09T22:30:46.713Z,66.90
2023-04-09T22:33:21.120Z,65.90
2023-04-09T22:35:59.586Z,57.70
2023-04-09T22:38:34.590Z,65.80
2023-04-09T22:41:09.427Z,65.10
2023-04-09T22:43:43.697Z,55.80
2023-04-09T22:46:18.005Z,59.40
2023-04-09T22:48:53.961Z,58.10
2023-04-09T22:51:28.304Z,57.10
2023-04-09T22:54:02.829Z,47.60
2023-04-09T22:56:38.323Z,60.50
2023-04-09T22:59:12.788Z,59.40
2023-04-09T23:01:47.380Z,60.80
2023-04-09T23:04:25.365Z,55.60
2023-04-09T23:06:59.502Z,53.20
2023-04-09T23:09:33.629Z,50.40
2023-04-09T23:12:07.916Z,55.50
2023-04-09T23:14:42.230Z,55.20
2023-04-09T23:17:16.461Z,61.00
2023-04-09T23:19:50.862Z,61.70
2023-04-09T23:22:27.220Z,58.10
2023-04-09T23:25:01.405Z,61.40
2023-04-09T23:27:35.629Z,58.30
2023-04-09T23:30:16.819Z,61.90
2023-04-09T23:32:52.643Z,57.30
2023-04-09T23:35:27.035Z,59.60
2023-04-09T23:38:01.146Z,56.80
2023-04-09T23:40:35.198Z,54.60
2023-04-09T23:43:09.550Z,51.40
2023-04-09T23:45:43.978Z,51.90
2023-04-09T23:48:18.127Z,59.40
2023-04-09T23:50:52.257Z,52.60
2023-04-09T23:53:26.400Z,50.90
2023-04-09T23:56:00.872Z,51.00
2023-04-09T23:58:34.921Z,53.60
